sensor_id;sensor_type;location;lat;lon;timestamp;P1;durP1;ratioP1;P2;durP2;ratioP2
26201;SDS011;13944;28.562;77.188;2023-01-13T00:01:22;403.67;;;228.23;;
26201;SDS011;13944;28.562;77.188;2023-01-13T00:03:49;382.53;;;222.40;;
26201;SDS011;13944;28.562;77.188;2023-01-13T00:06:17;385.47;;;227.33;;
26201;SDS011;13944;28.562;77.188;2023-01-13T00:08:46;379.60;;;224.07;;
26201;SDS011;13944;28.562;77.188;2023-01-13T00:11:14;387.17;;;222.57;;
26201;SDS011;13944;28.562;77.188;2023-01-13T00:13:40;396.00;;;231.90;;
26201;SDS011;13944;28.562;77.188;2023-01-13T00:16:08;393.83;;;229.07;;
26201;SDS011;13944;28.562;77.188;2023-01-13T00:18:36;397.10;;;227.20;;
26201;SDS011;13944;28.562;77.188;2023-01-13T00:21:04;388.60;;;225.17;;
26201;SDS011;13944;28.562;77.188;2023-01-13T00:23:31;397.90;;;229.70;;
26201;SDS011;13944;28.562;77.188;2023-01-13T00:25:59;383.23;;;223.80;;
26201;SDS011;13944;28.562;77.188;2023-01-13T00:28:26;393.50;;;224.40;;
26201;SDS011;13944;28.562;77.188;2023-01-13T00:30:53;381.77;;;225.90;;
26201;SDS011;13944;28.562;77.188;2023-01-13T00:33:23;390.63;;;228.87;;
26201;SDS011;13944;28.562;77.188;2023-01-13T00:35:56;377.00;;;226.70;;
26201;SDS011;13944;28.562;77.188;2023-01-13T00:38:23;386.40;;;224.60;;
26201;SDS011;13944;28.562;77.188;2023-01-13T00:40:56;386.50;;;229.40;;
26201;SDS011;13944;28.562;77.188;2023-01-13T00:43:23;380.20;;;229.13;;
26201;SDS011;13944;28.562;77.188;2023-01-13T00:45:50;383.93;;;231.23;;
26201;SDS011;13944;28.562;77.188;2023-01-13T00:48:20;387.43;;;228.13;;
26201;SDS011;13944;28.562;77.188;2023-01-13T00:50:53;392.30;;;226.83;;
26201;SDS011;13944;28.562;77.188;2023-01-13T00:53:20;391.13;;;229.37;;
26201;SDS011;13944;28.562;77.188;2023-01-13T00:55:46;377.37;;;225.27;;
26201;SDS011;13944;28.562;77.188;2023-01-13T00:58:13;369.60;;;219.03;;
26201;SDS011;13944;28.562;77.188;2023-01-13T01:00:39;381.37;;;225.93;;
26201;SDS011;13944;28.562;77.188;2023-01-13T01:03:06;370.30;;;222.43;;
26201;SDS011;13944;28.562;77.188;2023-01-13T01:05:39;374.53;;;222.27;;
26201;SDS011;13944;28.562;77.188;2023-01-13T01:08:05;377.77;;;221.30;;
26201;SDS011;13944;28.562;77.188;2023-01-13T01:10:32;388.67;;;222.13;;
26201;SDS011;13944;28.562;77.188;2023-01-13T01:12:58;373.10;;;218.97;;
26201;SDS011;13944;28.562;77.188;2023-01-13T01:15:25;410.07;;;224.23;;
26201;SDS011;13944;28.562;77.188;2023-01-13T01:17:51;429.90;;;223.37;;
26201;SDS011;13944;28.562;77.188;2023-01-13T01:20:18;436.60;;;237.43;;
26201;SDS011;13944;28.562;77.188;2023-01-13T01:22:45;403.83;;;227.63;;
26201;SDS011;13944;28.562;77.188;2023-01-13T01:25:11;407.57;;;223.33;;
26201;SDS011;13944;28.562;77.188;2023-01-13T01:27:38;447.33;;;230.53;;
26201;SDS011;13944;28.562;77.188;2023-01-13T01:30:04;422.20;;;234.23;;
26201;SDS011;13944;28.562;77.188;2023-01-13T01:32:32;405.93;;;230.57;;
26201;SDS011;13944;28.562;77.188;2023-01-13T01:34:59;371.43;;;222.03;;
26201;SDS011;13944;28.562;77.188;2023-01-13T01:37:25;377.93;;;220.77;;
26201;SDS011;13944;28.562;77.188;2023-01-13T01:39:52;379.57;;;219.80;;
26201;SDS011;13944;28.562;77.188;2023-01-13T01:42:21;380.47;;;215.07;;
26201;SDS011;13944;28.562;77.188;2023-01-13T01:45:10;369.70;;;214.53;;
26201;SDS011;13944;28.562;77.188;2023-01-13T01:47:38;384.53;;;224.90;;
26201;SDS011;13944;28.562;77.188;2023-01-13T01:50:06;369.23;;;226.23;;
26201;SDS011;13944;28.562;77.188;2023-01-13T01:52:34;370.80;;;227.20;;
26201;SDS011;13944;28.562;77.188;2023-01-13T01:55:04;384.37;;;230.23;;
26201;SDS011;13944;28.562;77.188;2023-01-13T01:57:35;374.10;;;224.60;;
26201;SDS011;13944;28.562;77.188;2023-01-13T02:00:04;387.47;;;230.40;;
26201;SDS011;13944;28.562;77.188;2023-01-13T02:02:30;381.10;;;225.33;;
26201;SDS011;13944;28.562;77.188;2023-01-13T02:04:57;380.33;;;227.80;;
26201;SDS011;13944;28.562;77.188;2023-01-13T02:07:29;384.37;;;231.20;;
26201;SDS011;13944;28.562;77.188;2023-01-13T02:09:56;372.70;;;227.47;;
26201;SDS011;13944;28.562;77.188;2023-01-13T02:12:23;368.23;;;225.00;;
26201;SDS011;13944;28.562;77.188;2023-01-13T02:14:56;374.37;;;220.50;;
26201;SDS011;13944;28.562;77.188;2023-01-13T02:25:11;394.47;;;228.53;;
26201;SDS011;13944;28.562;77.188;2023-01-13T02:27:59;388.73;;;226.10;;
26201;SDS011;13944;28.562;77.188;2023-01-13T02:33:30;382.97;;;215.53;;
26201;SDS011;13944;28.562;77.188;2023-01-13T02:38:33;348.60;;;207.13;;
26201;SDS011;13944;28.562;77.188;2023-01-13T02:41:11;355.87;;;206.50;;
26201;SDS011;13944;28.562;77.188;2023-01-13T02:43:59;338.23;;;201.37;;
26201;SDS011;13944;28.562;77.188;2023-01-13T02:49:00;338.40;;;201.87;;
26201;SDS011;13944;28.562;77.188;2023-01-13T02:51:28;327.73;;;192.00;;
26201;SDS011;13944;28.562;77.188;2023-01-13T02:56:28;318.00;;;186.30;;
26201;SDS011;13944;28.562;77.188;2023-01-13T02:58:56;345.00;;;205.00;;
26201;SDS011;13944;28.562;77.188;2023-01-13T03:01:24;340.30;;;203.90;;
26201;SDS011;13944;28.562;77.188;2023-01-13T03:03:51;338.07;;;197.87;;
26201;SDS011;13944;28.562;77.188;2023-01-13T03:11:22;331.80;;;198.70;;
26201;SDS011;13944;28.562;77.188;2023-01-13T03:16:46;357.97;;;210.77;;
26201;SDS011;13944;28.562;77.188;2023-01-13T03:19:59;328.43;;;203.83;;
26201;SDS011;13944;28.562;77.188;2023-01-13T03:22:09;343.67;;;210.77;;
26201;SDS011;13944;28.562;77.188;2023-01-13T03:24:41;357.20;;;218.80;;
26201;SDS011;13944;28.562;77.188;2023-01-13T03:29:40;357.37;;;225.10;;
26201;SDS011;13944;28.562;77.188;2023-01-13T03:34:48;361.90;;;226.50;;
26201;SDS011;13944;28.562;77.188;2023-01-13T03:37:16;360.70;;;220.50;;
26201;SDS011;13944;28.562;77.188;2023-01-13T03:39:45;359.53;;;222.53;;
26201;SDS011;13944;28.562;77.188;2023-01-13T03:42:19;363.33;;;223.93;;
26201;SDS011;13944;28.562;77.188;2023-01-13T03:44:51;366.80;;;228.93;;
26201;SDS011;13944;28.562;77.188;2023-01-13T03:47:21;356.60;;;227.53;;
26201;SDS011;13944;28.562;77.188;2023-01-13T03:49:53;370.03;;;226.53;;
26201;SDS011;13944;28.562;77.188;2023-01-13T03:52:26;372.27;;;227.53;;
26201;SDS011;13944;28.562;77.188;2023-01-13T03:54:55;377.43;;;219.87;;
26201;SDS011;13944;28.562;77.188;2023-01-13T03:57:23;356.13;;;218.87;;
26201;SDS011;13944;28.562;77.188;2023-01-13T03:59:53;349.07;;;213.73;;
26201;SDS011;13944;28.562;77.188;2023-01-13T04:04:57;307.20;;;183.73;;
26201;SDS011;13944;28.562;77.188;2023-01-13T04:10:01;313.37;;;187.63;;
26201;SDS011;13944;28.562;77.188;2023-01-13T04:12:29;319.03;;;190.20;;
26201;SDS011;13944;28.562;77.188;2023-01-13T04:15:23;319.37;;;187.47;;
26201;SDS011;13944;28.562;77.188;2023-01-13T04:17:52;321.70;;;187.03;;
26201;SDS011;13944;28.562;77.188;2023-01-13T04:20:18;336.27;;;199.10;;
26201;SDS011;13944;28.562;77.188;2023-01-13T04:22:45;329.83;;;197.33;;
26201;SDS011;13944;28.562;77.188;2023-01-13T04:25:12;331.20;;;199.47;;
26201;SDS011;13944;28.562;77.188;2023-01-13T04:27:39;326.53;;;192.77;;
26201;SDS011;13944;28.562;77.188;2023-01-13T04:30:05;334.10;;;203.63;;
26201;SDS011;13944;28.562;77.188;2023-01-13T04:32:32;335.33;;;201.37;;
26201;SDS011;13944;28.562;77.188;2023-01-13T04:34:58;320.50;;;191.40;;
26201;SDS011;13944;28.562;77.188;2023-01-13T04:37:25;323.27;;;194.07;;
26201;SDS011;13944;28.562;77.188;2023-01-13T04:39:51;335.90;;;200.67;;
26201;SDS011;13944;28.562;77.188;2023-01-13T04:42:18;287.83;;;173.93;;
26201;SDS011;13944;28.562;77.188;2023-01-13T04:44:44;327.27;;;197.30;;
26201;SDS011;13944;28.562;77.188;2023-01-13T04:47:11;308.93;;;183.53;;
26201;SDS011;13944;28.562;77.188;2023-01-13T04:49:37;313.13;;;179.80;;
26201;SDS011;13944;28.562;77.188;2023-01-13T04:52:04;306.57;;;185.77;;
26201;SDS011;13944;28.562;77.188;2023-01-13T04:54:31;317.03;;;190.73;;
26201;SDS011;13944;28.562;77.188;2023-01-13T04:56:58;321.13;;;194.87;;
26201;SDS011;13944;28.562;77.188;2023-01-13T04:59:24;323.67;;;194.83;;
26201;SDS011;13944;28.562;77.188;2023-01-13T05:01:50;320.67;;;192.30;;
26201;SDS011;13944;28.562;77.188;2023-01-13T05:04:17;321.63;;;192.43;;
26201;SDS011;13944;28.562;77.188;2023-01-13T05:06:44;337.10;;;204.10;;
26201;SDS011;13944;28.562;77.188;2023-01-13T05:09:10;345.00;;;208.53;;
26201;SDS011;13944;28.562;77.188;2023-01-13T05:11:37;337.83;;;201.57;;
26201;SDS011;13944;28.562;77.188;2023-01-13T05:14:22;340.63;;;208.10;;
26201;SDS011;13944;28.562;77.188;2023-01-13T05:17:18;344.93;;;206.37;;
26201;SDS011;13944;28.562;77.188;2023-01-13T05:19:45;343.23;;;209.33;;
26201;SDS011;13944;28.562;77.188;2023-01-13T05:22:12;329.50;;;197.57;;
26201;SDS011;13944;28.562;77.188;2023-01-13T05:24:57;327.60;;;201.13;;
26201;SDS011;13944;28.562;77.188;2023-01-13T05:27:42;322.43;;;193.90;;
26201;SDS011;13944;28.562;77.188;2023-01-13T05:30:09;299.47;;;176.23;;
26201;SDS011;13944;28.562;77.188;2023-01-13T05:32:35;284.07;;;170.40;;
26201;SDS011;13944;28.562;77.188;2023-01-13T05:35:02;272.53;;;161.93;;
26201;SDS011;13944;28.562;77.188;2023-01-13T05:37:29;281.53;;;173.60;;
26201;SDS011;13944;28.562;77.188;2023-01-13T05:39:55;311.90;;;186.80;;
26201;SDS011;13944;28.562;77.188;2023-01-13T05:42:40;308.37;;;185.53;;
26201;SDS011;13944;28.562;77.188;2023-01-13T05:45:25;296.70;;;182.57;;
26201;SDS011;13944;28.562;77.188;2023-01-13T05:47:52;294.63;;;179.43;;
26201;SDS011;13944;28.562;77.188;2023-01-13T05:50:18;311.50;;;187.40;;
26201;SDS011;13944;28.562;77.188;2023-01-13T05:52:45;297.73;;;179.50;;
26201;SDS011;13944;28.562;77.188;2023-01-13T05:55:11;278.63;;;168.67;;
26201;SDS011;13944;28.562;77.188;2023-01-13T05:57:39;312.07;;;188.73;;
26201;SDS011;13944;28.562;77.188;2023-01-13T06:00:05;291.30;;;174.27;;
26201;SDS011;13944;28.562;77.188;2023-01-13T06:02:32;297.73;;;182.07;;
26201;SDS011;13944;28.562;77.188;2023-01-13T06:04:59;333.10;;;201.67;;
26201;SDS011;13944;28.562;77.188;2023-01-13T06:07:25;299.27;;;179.37;;
26201;SDS011;13944;28.562;77.188;2023-01-13T06:09:52;308.83;;;194.27;;
26201;SDS011;13944;28.562;77.188;2023-01-13T06:12:18;331.40;;;196.53;;
26201;SDS011;13944;28.562;77.188;2023-01-13T06:14:45;318.50;;;192.83;;
26201;SDS011;13944;28.562;77.188;2023-01-13T06:17:12;319.33;;;190.37;;
26201;SDS011;13944;28.562;77.188;2023-01-13T06:19:39;311.83;;;187.67;;
26201;SDS011;13944;28.562;77.188;2023-01-13T06:22:16;296.43;;;183.50;;
26201;SDS011;13944;28.562;77.188;2023-01-13T06:24:46;292.47;;;179.03;;
26201;SDS011;13944;28.562;77.188;2023-01-13T06:27:14;306.03;;;184.17;;
26201;SDS011;13944;28.562;77.188;2023-01-13T06:29:40;290.53;;;174.67;;
26201;SDS011;13944;28.562;77.188;2023-01-13T06:32:08;301.53;;;184.17;;
26201;SDS011;13944;28.562;77.188;2023-01-13T06:34:37;296.20;;;180.17;;
26201;SDS011;13944;28.562;77.188;2023-01-13T06:37:04;300.40;;;182.40;;
26201;SDS011;13944;28.562;77.188;2023-01-13T06:39:31;280.83;;;170.77;;
26201;SDS011;13944;28.562;77.188;2023-01-13T06:41:57;290.10;;;175.17;;
26201;SDS011;13944;28.562;77.188;2023-01-13T06:44:43;309.53;;;184.07;;
26201;SDS011;13944;28.562;77.188;2023-01-13T06:47:10;304.20;;;182.13;;
26201;SDS011;13944;28.562;77.188;2023-01-13T06:49:36;290.73;;;174.47;;
26201;SDS011;13944;28.562;77.188;2023-01-13T06:52:03;301.77;;;183.60;;
26201;SDS011;13944;28.562;77.188;2023-01-13T06:54:30;293.83;;;175.00;;
26201;SDS011;13944;28.562;77.188;2023-01-13T06:56:56;291.93;;;175.03;;
26201;SDS011;13944;28.562;77.188;2023-01-13T06:59:23;269.73;;;163.37;;
26201;SDS011;13944;28.562;77.188;2023-01-13T07:01:50;290.23;;;175.40;;
26201;SDS011;13944;28.562;77.188;2023-01-13T07:04:16;287.87;;;172.37;;
26201;SDS011;13944;28.562;77.188;2023-01-13T07:06:43;263.20;;;157.20;;
26201;SDS011;13944;28.562;77.188;2023-01-13T07:09:09;275.40;;;164.30;;
26201;SDS011;13944;28.562;77.188;2023-01-13T07:11:36;250.30;;;150.93;;
26201;SDS011;13944;28.562;77.188;2023-01-13T07:14:02;273.40;;;165.40;;
26201;SDS011;13944;28.562;77.188;2023-01-13T07:16:47;238.30;;;145.30;;
26201;SDS011;13944;28.562;77.188;2023-01-13T07:19:14;265.17;;;159.93;;
26201;SDS011;13944;28.562;77.188;2023-01-13T07:21:47;267.97;;;158.20;;
26201;SDS011;13944;28.562;77.188;2023-01-13T07:24:13;259.13;;;150.63;;
26201;SDS011;13944;28.562;77.188;2023-01-13T07:26:40;287.93;;;169.43;;
26201;SDS011;13944;28.562;77.188;2023-01-13T07:29:07;284.63;;;171.03;;
26201;SDS011;13944;28.562;77.188;2023-01-13T07:31:33;287.27;;;173.57;;
26201;SDS011;13944;28.562;77.188;2023-01-13T07:34:00;269.33;;;158.00;;
26201;SDS011;13944;28.562;77.188;2023-01-13T07:36:27;270.17;;;158.43;;
26201;SDS011;13944;28.562;77.188;2023-01-13T07:38:54;251.37;;;148.87;;
26201;SDS011;13944;28.562;77.188;2023-01-13T07:41:21;247.57;;;147.27;;
26201;SDS011;13944;28.562;77.188;2023-01-13T07:44:06;208.03;;;127.23;;
26201;SDS011;13944;28.562;77.188;2023-01-13T07:46:35;231.57;;;137.57;;
26201;SDS011;13944;28.562;77.188;2023-01-13T07:49:02;221.93;;;132.43;;
26201;SDS011;13944;28.562;77.188;2023-01-13T07:51:29;229.17;;;136.53;;
26201;SDS011;13944;28.562;77.188;2023-01-13T07:53:56;223.30;;;131.27;;
26201;SDS011;13944;28.562;77.188;2023-01-13T07:56:23;211.97;;;129.27;;
26201;SDS011;13944;28.562;77.188;2023-01-13T07:58:49;205.90;;;124.10;;
26201;SDS011;13944;28.562;77.188;2023-01-13T08:01:18;222.47;;;130.43;;
26201;SDS011;13944;28.562;77.188;2023-01-13T08:03:45;216.97;;;129.63;;
26201;SDS011;13944;28.562;77.188;2023-01-13T08:06:11;209.90;;;129.03;;
26201;SDS011;13944;28.562;77.188;2023-01-13T08:08:39;201.97;;;121.33;;
26201;SDS011;13944;28.562;77.188;2023-01-13T08:11:06;183.00;;;108.13;;
26201;SDS011;13944;28.562;77.188;2023-01-13T08:13:33;203.77;;;119.60;;
26201;SDS011;13944;28.562;77.188;2023-01-13T08:16:04;200.27;;;122.57;;
26201;SDS011;13944;28.562;77.188;2023-01-13T08:18:31;201.67;;;124.40;;
26201;SDS011;13944;28.562;77.188;2023-01-13T08:21:02;225.63;;;132.17;;
26201;SDS011;13944;28.562;77.188;2023-01-13T08:23:29;220.50;;;129.20;;
26201;SDS011;13944;28.562;77.188;2023-01-13T08:26:00;204.73;;;121.37;;
26201;SDS011;13944;28.562;77.188;2023-01-13T08:28:27;198.73;;;120.23;;
26201;SDS011;13944;28.562;77.188;2023-01-13T08:30:54;201.17;;;117.97;;
26201;SDS011;13944;28.562;77.188;2023-01-13T08:33:20;216.10;;;131.50;;
26201;SDS011;13944;28.562;77.188;2023-01-13T08:35:47;202.13;;;122.33;;
26201;SDS011;13944;28.562;77.188;2023-01-13T08:38:16;211.17;;;124.40;;
26201;SDS011;13944;28.562;77.188;2023-01-13T08:40:43;197.73;;;118.77;;
26201;SDS011;13944;28.562;77.188;2023-01-13T08:43:10;215.33;;;128.53;;
26201;SDS011;13944;28.562;77.188;2023-01-13T08:45:36;226.30;;;125.77;;
26201;SDS011;13944;28.562;77.188;2023-01-13T08:48:03;193.07;;;116.20;;
26201;SDS011;13944;28.562;77.188;2023-01-13T08:50:29;209.03;;;125.97;;
26201;SDS011;13944;28.562;77.188;2023-01-13T08:52:56;202.40;;;122.97;;
26201;SDS011;13944;28.562;77.188;2023-01-13T08:55:22;218.40;;;127.10;;
26201;SDS011;13944;28.562;77.188;2023-01-13T08:57:49;202.70;;;121.00;;
26201;SDS011;13944;28.562;77.188;2023-01-13T09:00:16;195.10;;;119.73;;
26201;SDS011;13944;28.562;77.188;2023-01-13T09:02:42;216.33;;;128.37;;
26201;SDS011;13944;28.562;77.188;2023-01-13T09:05:09;206.30;;;124.40;;
26201;SDS011;13944;28.562;77.188;2023-01-13T09:07:36;200.03;;;125.83;;
26201;SDS011;13944;28.562;77.188;2023-01-13T09:10:04;205.57;;;122.80;;
26201;SDS011;13944;28.562;77.188;2023-01-13T09:12:31;214.97;;;129.73;;
26201;SDS011;13944;28.562;77.188;2023-01-13T09:15:16;227.33;;;132.70;;
26201;SDS011;13944;28.562;77.188;2023-01-13T09:17:43;216.90;;;131.83;;
26201;SDS011;13944;28.562;77.188;2023-01-13T09:20:10;226.47;;;131.17;;
26201;SDS011;13944;28.562;77.188;2023-01-13T09:22:37;203.57;;;125.07;;
26201;SDS011;13944;28.562;77.188;2023-01-13T09:25:05;208.33;;;125.40;;
26201;SDS011;13944;28.562;77.188;2023-01-13T09:27:31;230.10;;;135.33;;
26201;SDS011;13944;28.562;77.188;2023-01-13T09:29:58;228.77;;;133.10;;
26201;SDS011;13944;28.562;77.188;2023-01-13T09:32:24;212.07;;;128.33;;
26201;SDS011;13944;28.562;77.188;2023-01-13T09:34:51;235.43;;;137.10;;
26201;SDS011;13944;28.562;77.188;2023-01-13T09:37:28;222.23;;;134.53;;
26201;SDS011;13944;28.562;77.188;2023-01-13T09:39:55;204.30;;;126.37;;
26201;SDS011;13944;28.562;77.188;2023-01-13T09:42:38;214.73;;;128.50;;
26201;SDS011;13944;28.562;77.188;2023-01-13T09:45:25;211.70;;;130.00;;
26201;SDS011;13944;28.562;77.188;2023-01-13T09:50:49;204.57;;;121.10;;
26201;SDS011;13944;28.562;77.188;2023-01-13T09:53:25;219.57;;;137.17;;
26201;SDS011;13944;28.562;77.188;2023-01-13T09:55:52;231.50;;;137.60;;
26201;SDS011;13944;28.562;77.188;2023-01-13T09:58:20;221.70;;;131.90;;
26201;SDS011;13944;28.562;77.188;2023-01-13T10:01:05;218.93;;;131.80;;
26201;SDS011;13944;28.562;77.188;2023-01-13T10:03:34;212.07;;;125.03;;
26201;SDS011;13944;28.562;77.188;2023-01-13T10:08:35;210.53;;;127.60;;
26201;SDS011;13944;28.562;77.188;2023-01-13T10:11:04;219.37;;;131.50;;
26201;SDS011;13944;28.562;77.188;2023-01-13T10:13:58;205.73;;;126.50;;
26201;SDS011;13944;28.562;77.188;2023-01-13T10:26:59;203.77;;;126.33;;
26201;SDS011;13944;28.562;77.188;2023-01-13T10:29:28;205.87;;;121.80;;
26201;SDS011;13944;28.562;77.188;2023-01-13T10:31:56;192.60;;;117.23;;
26201;SDS011;13944;28.562;77.188;2023-01-13T10:34:23;192.97;;;119.47;;
26201;SDS011;13944;28.562;77.188;2023-01-13T10:36:54;186.30;;;115.73;;
26201;SDS011;13944;28.562;77.188;2023-01-13T10:39:23;204.10;;;118.90;;
26201;SDS011;13944;28.562;77.188;2023-01-13T10:42:00;202.60;;;120.90;;
26201;SDS011;13944;28.562;77.188;2023-01-13T10:44:28;203.47;;;122.10;;
26201;SDS011;13944;28.562;77.188;2023-01-13T10:46:55;197.03;;;119.00;;
26201;SDS011;13944;28.562;77.188;2023-01-13T10:49:32;201.53;;;118.93;;
26201;SDS011;13944;28.562;77.188;2023-01-13T10:52:00;203.60;;;123.57;;
26201;SDS011;13944;28.562;77.188;2023-01-13T10:54:27;216.40;;;127.60;;
26201;SDS011;13944;28.562;77.188;2023-01-13T10:59:40;189.53;;;114.37;;
26201;SDS011;13944;28.562;77.188;2023-01-13T11:02:16;166.20;;;97.90;;
26201;SDS011;13944;28.562;77.188;2023-01-13T11:07:27;219.47;;;133.40;;
26201;SDS011;13944;28.562;77.188;2023-01-13T11:10:02;221.20;;;130.83;;
26201;SDS011;13944;28.562;77.188;2023-01-13T11:12:31;229.93;;;140.03;;
26201;SDS011;13944;28.562;77.188;2023-01-13T11:15:02;223.13;;;132.10;;
26201;SDS011;13944;28.562;77.188;2023-01-13T11:20:18;236.33;;;140.80;;
26201;SDS011;13944;28.562;77.188;2023-01-13T11:22:47;231.97;;;134.30;;
26201;SDS011;13944;28.562;77.188;2023-01-13T11:25:19;236.47;;;140.23;;
26201;SDS011;13944;28.562;77.188;2023-01-13T11:28:24;227.90;;;134.43;;
26201;SDS011;13944;28.562;77.188;2023-01-13T11:30:42;243.50;;;144.17;;
26201;SDS011;13944;28.562;77.188;2023-01-13T11:35:41;230.90;;;135.40;;
26201;SDS011;13944;28.562;77.188;2023-01-13T11:38:12;221.03;;;133.27;;
26201;SDS011;13944;28.562;77.188;2023-01-13T11:40:40;249.70;;;142.27;;
26201;SDS011;13944;28.562;77.188;2023-01-13T11:43:26;249.37;;;141.50;;
26201;SDS011;13944;28.562;77.188;2023-01-13T11:45:58;231.87;;;134.10;;
26201;SDS011;13944;28.562;77.188;2023-01-13T11:48:29;247.60;;;144.13;;
26201;SDS011;13944;28.562;77.188;2023-01-13T11:59:20;222.80;;;135.10;;
26201;SDS011;13944;28.562;77.188;2023-01-13T12:07:08;238.87;;;141.00;;
26201;SDS011;13944;28.562;77.188;2023-01-13T12:09:50;252.37;;;144.70;;
26201;SDS011;13944;28.562;77.188;2023-01-13T12:20:24;289.37;;;169.77;;
26201;SDS011;13944;28.562;77.188;2023-01-13T12:22:54;319.80;;;194.67;;
26201;SDS011;13944;28.562;77.188;2023-01-13T12:25:27;316.77;;;183.50;;
26201;SDS011;13944;28.562;77.188;2023-01-13T12:28:00;331.77;;;198.90;;
26201;SDS011;13944;28.562;77.188;2023-01-13T12:30:48;356.10;;;213.37;;
26201;SDS011;13944;28.562;77.188;2023-01-13T12:33:23;372.70;;;220.27;;
26201;SDS011;13944;28.562;77.188;2023-01-13T12:36:35;374.67;;;222.17;;
26201;SDS011;13944;28.562;77.188;2023-01-13T12:38:44;374.27;;;221.33;;
26201;SDS011;13944;28.562;77.188;2023-01-13T12:41:18;371.63;;;214.93;;
26201;SDS011;13944;28.562;77.188;2023-01-13T12:43:48;370.80;;;218.93;;
26201;SDS011;13944;28.562;77.188;2023-01-13T12:46:39;362.63;;;215.47;;
26201;SDS011;13944;28.562;77.188;2023-01-13T12:49:19;370.33;;;215.20;;
26201;SDS011;13944;28.562;77.188;2023-01-13T12:59:49;386.90;;;224.80;;
26201;SDS011;13944;28.562;77.188;2023-01-13T13:02:38;408.60;;;233.00;;
26201;SDS011;13944;28.562;77.188;2023-01-13T13:07:42;405.20;;;225.67;;
26201;SDS011;13944;28.562;77.188;2023-01-13T13:15:25;415.87;;;227.43;;
26201;SDS011;13944;28.562;77.188;2023-01-13T13:21:10;412.17;;;228.83;;
26201;SDS011;13944;28.562;77.188;2023-01-13T13:26:14;404.80;;;226.20;;
26201;SDS011;13944;28.562;77.188;2023-01-13T13:28:51;408.67;;;227.90;;
26201;SDS011;13944;28.562;77.188;2023-01-13T13:34:14;413.83;;;232.53;;
26201;SDS011;13944;28.562;77.188;2023-01-13T13:39:24;407.60;;;229.13;;
26201;SDS011;13944;28.562;77.188;2023-01-13T13:42:23;402.90;;;230.27;;
26201;SDS011;13944;28.562;77.188;2023-01-13T13:45:16;409.27;;;230.30;;
26201;SDS011;13944;28.562;77.188;2023-01-13T13:50:46;421.10;;;240.07;;
26201;SDS011;13944;28.562;77.188;2023-01-13T13:53:13;415.83;;;236.07;;
26201;SDS011;13944;28.562;77.188;2023-01-13T13:55:40;433.70;;;237.53;;
26201;SDS011;13944;28.562;77.188;2023-01-13T13:58:17;443.60;;;246.43;;
26201;SDS011;13944;28.562;77.188;2023-01-13T14:00:45;425.00;;;239.10;;
26201;SDS011;13944;28.562;77.188;2023-01-13T14:05:58;437.40;;;241.53;;
26201;SDS011;13944;28.562;77.188;2023-01-13T14:08:27;424.37;;;240.43;;
26201;SDS011;13944;28.562;77.188;2023-01-13T14:10:53;420.83;;;234.30;;
26201;SDS011;13944;28.562;77.188;2023-01-13T14:13:22;405.93;;;224.80;;
26201;SDS011;13944;28.562;77.188;2023-01-13T14:15:54;402.27;;;228.63;;
26201;SDS011;13944;28.562;77.188;2023-01-13T14:18:21;414.60;;;228.20;;
26201;SDS011;13944;28.562;77.188;2023-01-13T14:20:54;415.00;;;227.23;;
26201;SDS011;13944;28.562;77.188;2023-01-13T14:23:27;397.97;;;217.13;;
26201;SDS011;13944;28.562;77.188;2023-01-13T14:25:54;393.37;;;219.63;;
26201;SDS011;13944;28.562;77.188;2023-01-13T14:28:28;404.20;;;222.10;;
26201;SDS011;13944;28.562;77.188;2023-01-13T14:30:56;407.20;;;222.63;;
26201;SDS011;13944;28.562;77.188;2023-01-13T14:33:26;399.90;;;221.83;;
26201;SDS011;13944;28.562;77.188;2023-01-13T14:36:04;384.87;;;218.50;;
26201;SDS011;13944;28.562;77.188;2023-01-13T14:38:31;383.03;;;213.37;;
26201;SDS011;13944;28.562;77.188;2023-01-13T14:41:07;398.83;;;218.27;;
26201;SDS011;13944;28.562;77.188;2023-01-13T14:43:34;386.77;;;218.87;;
26201;SDS011;13944;28.562;77.188;2023-01-13T14:46:07;393.83;;;217.30;;
26201;SDS011;13944;28.562;77.188;2023-01-13T14:48:34;378.17;;;213.80;;
26201;SDS011;13944;28.562;77.188;2023-01-13T14:51:01;374.27;;;213.40;;
26201;SDS011;13944;28.562;77.188;2023-01-13T14:58:52;375.73;;;215.10;;
26201;SDS011;13944;28.562;77.188;2023-01-13T15:01:28;382.53;;;215.53;;
26201;SDS011;13944;28.562;77.188;2023-01-13T15:04:20;385.17;;;218.53;;
26201;SDS011;13944;28.562;77.188;2023-01-13T15:06:50;389.23;;;219.97;;
26201;SDS011;13944;28.562;77.188;2023-01-13T15:09:22;382.03;;;220.03;;
26201;SDS011;13944;28.562;77.188;2023-01-13T15:11:49;382.83;;;217.07;;
26201;SDS011;13944;28.562;77.188;2023-01-13T15:14:20;365.70;;;212.90;;
26201;SDS011;13944;28.562;77.188;2023-01-13T15:16:48;363.60;;;219.27;;
26201;SDS011;13944;28.562;77.188;2023-01-13T15:19:15;395.10;;;224.50;;
26201;SDS011;13944;28.562;77.188;2023-01-13T15:21:41;380.63;;;229.60;;
26201;SDS011;13944;28.562;77.188;2023-01-13T15:24:08;380.50;;;239.00;;
26201;SDS011;13944;28.562;77.188;2023-01-13T15:26:34;376.27;;;226.90;;
26201;SDS011;13944;28.562;77.188;2023-01-13T15:29:02;370.87;;;225.77;;
26201;SDS011;13944;28.562;77.188;2023-01-13T15:31:29;369.60;;;213.40;;
26201;SDS011;13944;28.562;77.188;2023-01-13T15:33:56;362.23;;;206.83;;
26201;SDS011;13944;28.562;77.188;2023-01-13T15:36:25;378.77;;;217.18;;
26201;SDS011;13944;28.562;77.188;2023-01-13T15:38:52;388.00;;;212.50;;
26201;SDS011;13944;28.562;77.188;2023-01-13T15:41:19;376.37;;;214.47;;
26201;SDS011;13944;28.562;77.188;2023-01-13T15:44:05;384.33;;;213.13;;
26201;SDS011;13944;28.562;77.188;2023-01-13T15:46:50;390.60;;;214.50;;
26201;SDS011;13944;28.562;77.188;2023-01-13T15:49:22;390.40;;;216.77;;
26201;SDS011;13944;28.562;77.188;2023-01-13T15:51:50;399.67;;;221.50;;
26201;SDS011;13944;28.562;77.188;2023-01-13T15:54:16;399.20;;;220.73;;
26201;SDS011;13944;28.562;77.188;2023-01-13T15:56:47;410.80;;;228.87;;
26201;SDS011;13944;28.562;77.188;2023-01-13T15:59:18;410.37;;;226.47;;
26201;SDS011;13944;28.562;77.188;2023-01-13T16:01:46;419.50;;;231.80;;
26201;SDS011;13944;28.562;77.188;2023-01-13T16:04:13;403.97;;;216.60;;